createdAt,value
2023-01-23T00:01:49.485Z,8.53
2023-01-23T00:04:18.677Z,9.30
2023-01-23T00:06:51.316Z,8.07
2023-01-23T00:09:20.157Z,8.40
2023-01-23T00:11:49.513Z,8.07
2023-01-23T00:14:19.454Z,8.30
2023-01-23T00:16:48.190Z,8.40
2023-01-23T00:19:17.617Z,7.27
2023-01-23T00:21:46.077Z,8.70
2023-01-23T00:24:14.420Z,8.23
2023-01-23T00:26:42.821Z,8.37
2023-01-23T00:29:11.563Z,8.30
2023-01-23T00:31:41.940Z,8.90
2023-01-23T00:34:13.873Z,7.83
2023-01-23T00:36:45.327Z,7.10
2023-01-23T00:39:17.833Z,7.97
2023-01-23T00:41:47.197Z,7.40
2023-01-23T00:44:15.975Z,7.87
2023-01-23T00:46:46.157Z,8.60
2023-01-23T00:49:14.979Z,7.77
2023-01-23T00:51:45.841Z,7.60
2023-01-23T00:54:15.813Z,8.03
2023-01-23T00:56:45.847Z,7.70
2023-01-23T00:59:14.263Z,7.97
2023-01-23T01:01:42.787Z,7.43
2023-01-23T01:04:14.618Z,7.20
2023-01-23T01:06:43.263Z,7.23
2023-01-23T01:09:11.971Z,7.97
2023-01-23T01:11:43.095Z,7.20
2023-01-23T01:14:11.602Z,7.53
2023-01-23T01:16:45.357Z,7.93
2023-01-23T01:19:17.541Z,8.03
2023-01-23T01:21:48.534Z,6.27
2023-01-23T01:24:17.087Z,7.20
2023-01-23T01:26:46.177Z,6.80
2023-01-23T01:29:14.762Z,6.23
2023-01-23T01:31:45.216Z,6.90
2023-01-23T01:34:17.161Z,7.20
2023-01-23T01:36:45.991Z,6.53
2023-01-23T01:39:17.048Z,5.47
2023-01-23T01:41:45.872Z,6.67
2023-01-23T01:44:19.170Z,6.70
2023-01-23T01:46:49.106Z,6.73
2023-01-23T01:49:25.564Z,6.00
2023-01-23T01:51:58.825Z,6.17
2023-01-23T01:54:32.128Z,7.30
2023-01-23T01:57:06.260Z,7.33
2023-01-23T01:59:38.109Z,6.73
2023-01-23T02:02:10.622Z,6.93
2023-01-23T02:04:44.592Z,6.27
2023-01-23T02:07:18.885Z,6.47
2023-01-23T02:09:48.730Z,6.37
2023-01-23T02:12:17.301Z,6.20
2023-01-23T02:14:46.963Z,5.30
2023-01-23T02:17:15.569Z,6.23
2023-01-23T02:19:55.011Z,5.90
2023-01-23T02:22:34.164Z,5.83
2023-01-23T02:25:10.122Z,6.70
2023-01-23T02:27:40.314Z,6.70
2023-01-23T02:30:11.299Z,5.80
2023-01-23T02:32:40.182Z,6.73
2023-01-23T02:35:16.725Z,5.90
2023-01-23T02:37:50.550Z,5.97
2023-01-23T02:40:22.511Z,6.00
2023-01-23T02:42:53.380Z,6.17
2023-01-23T02:45:23.574Z,5.20
2023-01-23T02:47:54.386Z,5.30
2023-01-23T02:50:23.797Z,6.23
2023-01-23T02:52:54.742Z,6.07
2023-01-23T02:55:23.557Z,6.47
2023-01-23T02:57:56.613Z,6.00
2023-01-23T03:00:25.082Z,6.13
2023-01-23T03:02:54.998Z,5.73
2023-01-23T03:05:23.510Z,5.77
2023-01-23T03:07:53.960Z,6.30
2023-01-23T03:10:26.868Z,5.73
2023-01-23T03:12:59.804Z,5.70
2023-01-23T03:15:31.711Z,6.10
2023-01-23T03:18:00.139Z,4.90
2023-01-23T03:20:30.271Z,6.13
2023-01-23T03:22:58.870Z,6.50
2023-01-23T03:25:29.977Z,5.27
2023-01-23T03:27:59.988Z,6.00
2023-01-23T03:30:27.409Z,5.80
2023-01-23T03:32:57.514Z,5.50
2023-01-23T03:35:27.994Z,4.90
2023-01-23T03:37:57.200Z,5.17
2023-01-23T03:40:53.808Z,5.40
2023-01-23T03:43:24.157Z,4.17
2023-01-23T03:45:52.978Z,4.97
2023-01-23T03:48:23.076Z,5.20
2023-01-23T03:50:52.266Z,4.60
2023-01-23T03:53:23.415Z,5.37
2023-01-23T03:55:55.248Z,5.30
2023-01-23T03:58:27.333Z,4.87
2023-01-23T04:00:56.525Z,5.33
2023-01-23T04:03:27.856Z,5.00
2023-01-23T04:06:00.266Z,5.03
2023-01-23T04:08:29.528Z,5.20
2023-01-23T04:11:06.026Z,5.00
2023-01-23T04:13:36.818Z,4.70
2023-01-23T04:16:08.460Z,5.10
2023-01-23T04:18:37.532Z,4.80
2023-01-23T04:21:09.590Z,4.63
2023-01-23T04:23:38.354Z,5.00
2023-01-23T04:26:06.681Z,5.60
2023-01-23T04:28:37.013Z,4.50
2023-01-23T04:31:06.087Z,4.50
2023-01-23T04:33:37.145Z,4.60
2023-01-23T04:36:07.390Z,4.33
2023-01-23T04:38:38.390Z,3.90
2023-01-23T04:41:24.444Z,4.20
2023-01-23T04:44:20.621Z,4.50
2023-01-23T04:47:20.341Z,4.07
2023-01-23T04:49:50.689Z,4.07
2023-01-23T04:52:20.171Z,4.50
2023-01-23T04:54:56.328Z,4.57
2023-01-23T04:57:24.872Z,3.87
2023-01-23T05:00:00.905Z,3.70
2023-01-23T05:02:30.828Z,4.80
2023-01-23T05:05:00.501Z,4.40
2023-01-23T05:07:29.032Z,4.07
2023-01-23T05:10:13.357Z,4.00
2023-01-23T05:12:43.596Z,4.47
2023-01-23T05:15:17.077Z,4.83
2023-01-23T05:17:52.085Z,3.83
2023-01-23T05:20:23.486Z,3.50
2023-01-23T05:22:57.602Z,3.90
2023-01-23T05:25:34.794Z,4.40
2023-01-23T05:28:03.344Z,3.60
2023-01-23T05:30:34.661Z,3.83
2023-01-23T05:33:20.176Z,4.10
2023-01-23T05:35:48.857Z,3.50
2023-01-23T05:38:17.231Z,3.53
2023-01-23T05:40:46.206Z,4.20
2023-01-23T05:43:18.631Z,3.83
2023-01-23T05:46:07.321Z,4.10
2023-01-23T05:48:51.692Z,4.03
2023-01-23T05:51:22.588Z,3.87
2023-01-23T05:53:52.553Z,4.00
2023-01-23T05:56:21.408Z,4.13
2023-01-23T05:59:08.520Z,3.90
2023-01-23T06:01:50.389Z,3.80
2023-01-23T06:04:38.016Z,4.20
2023-01-23T06:07:22.551Z,3.70
2023-01-23T06:09:54.432Z,4.33
2023-01-23T06:12:23.654Z,4.07
2023-01-23T06:14:52.395Z,4.30
2023-01-23T06:17:22.870Z,3.50
2023-01-23T06:19:52.064Z,3.70
2023-01-23T06:22:21.073Z,4.07
2023-01-23T06:25:04.193Z,3.60
2023-01-23T06:27:33.023Z,3.70
2023-01-23T06:30:06.582Z,3.60
2023-01-23T06:32:43.432Z,3.50
2023-01-23T06:35:13.361Z,3.37
2023-01-23T06:37:45.179Z,3.27
2023-01-23T06:40:18.034Z,3.40
2023-01-23T06:42:56.909Z,3.50
2023-01-23T06:45:25.886Z,3.90
2023-01-23T06:47:56.162Z,3.03
2023-01-23T06:50:51.079Z,3.47
2023-01-23T06:53:21.340Z,3.07
2023-01-23T06:55:52.505Z,2.93
2023-01-23T06:58:21.591Z,2.97
2023-01-23T07:00:51.008Z,3.80
2023-01-23T07:03:40.851Z,3.80
2023-01-23T07:06:15.614Z,3.37
2023-01-23T07:08:44.308Z,3.40
2023-01-23T07:11:14.158Z,3.70
2023-01-23T07:13:45.001Z,3.73
2023-01-23T07:16:16.277Z,3.83
2023-01-23T07:18:47.107Z,3.53
2023-01-23T07:21:15.689Z,4.73
2023-01-23T07:23:44.211Z,3.00
2023-01-23T07:26:12.665Z,3.60
2023-01-23T07:28:41.201Z,4.57
2023-01-23T07:31:11.241Z,4.07
2023-01-23T07:33:39.856Z,3.93
2023-01-23T07:36:13.977Z,3.53
2023-01-23T07:38:43.068Z,3.30
2023-01-23T07:41:11.801Z,3.17
2023-01-23T07:43:40.540Z,3.70
2023-01-23T07:46:09.899Z,3.80
2023-01-23T07:48:39.545Z,3.70
2023-01-23T07:51:10.331Z,2.53
2023-01-23T07:53:38.967Z,3.47
2023-01-23T07:56:08.626Z,3.60
2023-01-23T07:58:37.009Z,3.30
2023-01-23T08:01:10.439Z,3.00
2023-01-23T08:03:39.021Z,3.50
2023-01-23T08:06:10.295Z,3.27
2023-01-23T08:08:39.156Z,3.20
2023-01-23T08:11:10.242Z,3.17
2023-01-23T08:13:38.706Z,3.00
2023-01-23T08:16:10.904Z,3.63
2023-01-23T08:18:42.102Z,3.30
2023-01-23T08:21:12.517Z,3.30
2023-01-23T08:23:45.791Z,3.63
2023-01-23T08:26:15.824Z,3.10
2023-01-23T08:28:45.538Z,2.60
2023-01-23T08:31:14.952Z,3.07
2023-01-23T08:33:43.456Z,3.23
2023-01-23T08:36:14.592Z,3.10
2023-01-23T08:38:43.130Z,2.73
2023-01-23T08:41:12.986Z,3.30
2023-01-23T08:43:44.839Z,3.10
2023-01-23T08:46:13.647Z,3.10
2023-01-23T08:48:42.868Z,2.50
2023-01-23T08:51:15.351Z,2.90
2023-01-23T08:53:44.426Z,2.40
2023-01-23T08:56:17.058Z,2.17
2023-01-23T08:58:45.976Z,3.10
2023-01-23T09:01:16.329Z,2.37
2023-01-23T09:03:45.526Z,2.43
2023-01-23T09:06:17.666Z,2.20
2023-01-23T09:08:46.984Z,2.50
2023-01-23T09:11:16.151Z,2.37
2023-01-23T09:13:44.740Z,2.60
2023-01-23T09:16:13.287Z,2.17
2023-01-23T09:18:42.034Z,2.23
2023-01-23T09:21:12.060Z,2.27
2023-01-23T09:23:42.221Z,2.77
2023-01-23T09:26:13.073Z,2.23
2023-01-23T09:28:43.687Z,2.70
2023-01-23T09:31:14.716Z,2.27
2023-01-23T09:33:43.389Z,2.10
2023-01-23T09:36:12.405Z,2.67
2023-01-23T09:38:42.424Z,2.37
2023-01-23T09:41:17.392Z,2.37
2023-01-23T09:43:54.905Z,3.03
2023-01-23T09:46:29.781Z,2.03
2023-01-23T09:49:04.131Z,2.50
2023-01-23T09:51:46.442Z,2.00
2023-01-23T09:54:29.659Z,2.47
2023-01-23T09:57:02.087Z,2.00
2023-01-23T09:59:50.103Z,2.50
2023-01-23T10:02:26.932Z,2.83
2023-01-23T10:04:58.106Z,2.43
2023-01-23T10:07:50.459Z,3.37
2023-01-23T10:10:45.524Z,2.07
2023-01-23T10:13:17.779Z,2.67
2023-01-23T10:16:14.980Z,2.70
2023-01-23T10:18:54.462Z,2.60
2023-01-23T10:21:30.775Z,2.27
2023-01-23T10:24:06.260Z,2.50
2023-01-23T10:26:42.495Z,2.50
2023-01-23T10:29:18.819Z,2.43
2023-01-23T10:31:51.804Z,2.90
2023-01-23T10:34:27.050Z,2.60
2023-01-23T10:37:07.235Z,3.07
2023-01-23T10:39:47.727Z,2.50
2023-01-23T10:42:20.694Z,2.47
2023-01-23T10:44:50.135Z,2.43
2023-01-23T10:47:32.659Z,2.57
2023-01-23T10:50:01.300Z,2.50
2023-01-23T10:52:47.324Z,3.30
2023-01-23T10:55:31.503Z,3.00
2023-01-23T10:58:03.274Z,2.60
2023-01-23T11:00:37.202Z,2.77
2023-01-23T11:03:32.604Z,2.83
2023-01-23T11:06:07.117Z,3.57
2023-01-23T11:08:37.561Z,3.33
2023-01-23T11:11:27.413Z,3.57
2023-01-23T11:14:09.695Z,2.80
2023-01-23T11:16:38.843Z,3.67
2023-01-23T11:19:18.260Z,3.07
2023-01-23T11:21:55.491Z,3.17
2023-01-23T11:24:39.667Z,3.80
2023-01-23T11:27:20.445Z,3.40
2023-01-23T11:30:22.446Z,2.70
2023-01-23T11:32:58.689Z,3.50
2023-01-23T11:35:44.017Z,3.20
2023-01-23T11:38:30.289Z,2.97
2023-01-23T11:41:00.023Z,3.40
2023-01-23T11:43:28.783Z,3.30
2023-01-23T11:46:24.424Z,2.80
2023-01-23T11:49:25.362Z,3.33
2023-01-23T11:52:06.523Z,3.60
2023-01-23T11:54:57.319Z,3.80
2023-01-23T11:57:37.721Z,2.97
2023-01-23T12:00:23.057Z,3.27
2023-01-23T12:03:25.020Z,3.27
2023-01-23T12:06:19.589Z,2.97
2023-01-23T12:09:07.275Z,3.20
2023-01-23T12:11:46.816Z,3.53
2023-01-23T12:14:23.006Z,3.10
2023-01-23T12:17:09.056Z,3.80
2023-01-23T12:19:52.704Z,3.50
2023-01-23T12:22:32.084Z,3.27
2023-01-23T12:25:15.119Z,3.40
2023-01-23T12:27:46.428Z,3.30
2023-01-23T12:30:34.786Z,2.93
2023-01-23T12:33:20.215Z,3.10
2023-01-23T12:35:58.386Z,3.57
2023-01-23T12:38:34.365Z,3.13
2023-01-23T12:41:14.825Z,2.80
2023-01-23T12:43:53.583Z,3.40
2023-01-23T12:46:28.427Z,2.83
2023-01-23T12:49:05.963Z,3.07
2023-01-23T12:51:38.980Z,3.47
2023-01-23T12:54:18.868Z,3.20
2023-01-23T12:59:28.941Z,3.50
2023-01-23T13:02:07.959Z,3.07
2023-01-23T13:05:03.830Z,3.20
2023-01-23T13:07:46.337Z,3.27
2023-01-23T13:11:07.819Z,4.77
2023-01-23T13:13:37.900Z,2.80
2023-01-23T13:16:13.989Z,3.10
2023-01-23T13:19:13.927Z,3.43
2023-01-23T13:22:02.802Z,2.90
2023-01-23T13:25:05.078Z,2.53
2023-01-23T13:27:45.816Z,3.30
2023-01-23T13:31:00.166Z,3.23
2023-01-23T13:33:51.620Z,2.80
2023-01-23T13:36:39.382Z,3.13
2023-01-23T13:39:30.442Z,3.30
2023-01-23T13:42:45.752Z,2.63
2023-01-23T13:45:51.233Z,2.90
2023-01-23T14:21:42.581Z,2.80
2023-01-23T14:24:22.867Z,2.90
2023-01-23T14:26:53.412Z,3.30
2023-01-23T14:29:25.442Z,3.10
2023-01-23T14:31:56.212Z,3.37
2023-01-23T14:34:26.046Z,3.73
2023-01-23T14:37:09.434Z,2.97
2023-01-23T14:39:39.826Z,3.40
2023-01-23T14:42:16.530Z,3.40
2023-01-23T14:44:49.759Z,12.33
2023-01-23T14:47:23.232Z,12.30
2023-01-23T14:49:53.062Z,3.70
2023-01-23T14:52:26.117Z,2.87
2023-01-23T14:54:59.156Z,3.60
2023-01-23T14:57:31.146Z,2.90
2023-01-23T15:00:00.138Z,4.20
2023-01-23T15:02:35.430Z,3.17
2023-01-23T15:05:24.699Z,3.83
2023-01-23T15:07:58.711Z,3.63
2023-01-23T15:10:29.886Z,3.67
2023-01-23T15:13:02.084Z,3.30
2023-01-23T15:15:33.243Z,3.60
2023-01-23T15:18:03.193Z,3.40
2023-01-23T15:20:38.377Z,3.80
2023-01-23T15:23:28.553Z,3.47
2023-01-23T15:26:32.487Z,3.30
2023-01-23T15:29:06.662Z,3.13
2023-01-23T15:31:39.819Z,3.33
2023-01-23T15:34:29.419Z,3.63
2023-01-23T15:37:06.496Z,3.20
2023-01-23T15:39:41.301Z,3.40
2023-01-23T15:42:37.109Z,3.40
2023-01-23T15:45:14.382Z,4.00
2023-01-23T15:47:42.771Z,4.00
2023-01-23T15:50:14.651Z,4.13
2023-01-23T15:52:52.648Z,3.50
2023-01-23T15:55:24.681Z,3.20
2023-01-23T15:57:53.984Z,3.47
2023-01-23T16:00:26.171Z,3.23
2023-01-23T16:02:57.653Z,4.37
2023-01-23T16:05:28.480Z,3.87
2023-01-23T16:07:58.318Z,3.50
2023-01-23T16:10:30.681Z,3.33
2023-01-23T16:12:59.763Z,3.57
2023-01-23T16:15:31.276Z,3.23
2023-01-23T16:18:00.617Z,3.10
2023-01-23T16:20:30.893Z,3.57
2023-01-23T16:23:11.640Z,3.67
2023-01-23T16:25:46.594Z,2.93
2023-01-23T16:28:16.048Z,3.73
2023-01-23T16:30:44.885Z,3.73
2023-01-23T16:33:13.850Z,3.80
2023-01-23T16:35:42.844Z,3.93
2023-01-23T16:38:20.630Z,3.53
2023-01-23T16:40:53.310Z,3.90
2023-01-23T16:43:23.004Z,3.73
2023-01-23T16:45:56.066Z,3.50
2023-01-23T16:48:27.666Z,3.77
2023-01-23T16:51:04.289Z,3.50
2023-01-23T16:53:37.099Z,3.57
2023-01-23T16:56:08.536Z,3.50
2023-01-23T16:58:40.854Z,4.57
2023-01-23T17:01:15.541Z,3.97
2023-01-23T17:03:45.829Z,4.60
2023-01-23T17:06:16.573Z,3.63
2023-01-23T17:08:45.113Z,4.03
2023-01-23T17:11:20.582Z,3.67
2023-01-23T17:13:49.567Z,3.67
2023-01-23T17:16:27.442Z,4.30
2023-01-23T17:18:58.549Z,4.43
2023-01-23T17:21:32.238Z,4.00
2023-01-23T17:24:00.957Z,4.97
2023-01-23T17:26:31.496Z,4.80
2023-01-23T17:28:59.931Z,3.93
2023-01-23T17:31:32.818Z,4.30
2023-01-23T17:34:03.853Z,4.10
2023-01-23T17:36:32.345Z,4.70
2023-01-23T17:39:02.939Z,4.60
2023-01-23T17:41:33.245Z,4.00
2023-01-23T17:44:01.802Z,5.37
2023-01-23T17:46:33.851Z,4.83
2023-01-23T17:49:02.582Z,4.40
2023-01-23T17:51:32.124Z,3.90
2023-01-23T17:54:02.923Z,4.20
2023-01-23T17:56:32.695Z,3.93
2023-01-23T17:59:01.222Z,3.90
2023-01-23T18:01:31.218Z,4.20
2023-01-23T18:03:59.657Z,4.67
2023-01-23T18:06:29.793Z,4.27
2023-01-23T18:08:59.122Z,4.50
2023-01-23T18:11:28.089Z,4.53
2023-01-23T18:14:26.719Z,4.30
2023-01-23T18:16:55.661Z,3.90
2023-01-23T18:19:26.586Z,4.03
2023-01-23T18:21:56.679Z,4.00
2023-01-23T18:24:28.536Z,4.00
2023-01-23T18:27:03.082Z,4.17
2023-01-23T18:29:47.604Z,3.90
2023-01-23T18:32:52.985Z,4.77
2023-01-23T18:35:31.798Z,4.27
2023-01-23T18:38:09.193Z,4.53
2023-01-23T18:40:44.133Z,3.50
2023-01-23T18:43:24.764Z,4.20
2023-01-23T18:45:56.559Z,4.43
2023-01-23T18:48:26.134Z,4.33
2023-01-23T18:51:08.473Z,4.60
2023-01-23T18:53:48.313Z,7.57
2023-01-23T18:56:27.366Z,4.30
2023-01-23T18:59:12.270Z,4.43
2023-01-23T19:01:50.433Z,4.40
2023-01-23T19:04:19.604Z,4.47
2023-01-23T19:06:48.672Z,4.00
2023-01-23T19:09:20.864Z,4.07
2023-01-23T19:12:24.994Z,4.87
2023-01-23T19:15:10.894Z,4.80
2023-01-23T19:17:47.359Z,4.60
2023-01-23T19:20:27.651Z,4.10
2023-01-23T19:23:11.065Z,5.03
2023-01-23T19:25:39.730Z,4.20
2023-01-23T19:28:11.275Z,4.10
2023-01-23T19:30:40.291Z,4.70
2023-01-23T19:33:15.988Z,4.03
2023-01-23T19:35:44.572Z,4.13
2023-01-23T19:38:13.144Z,4.17
2023-01-23T19:40:41.547Z,4.53
2023-01-23T19:43:16.934Z,4.77
2023-01-23T19:45:45.470Z,4.00
2023-01-23T19:48:15.908Z,4.33
2023-01-23T19:50:46.018Z,4.13
2023-01-23T19:53:17.170Z,4.20
2023-01-23T19:55:46.060Z,4.13
2023-01-23T19:58:14.401Z,4.00
2023-01-23T20:00:43.250Z,4.07
2023-01-23T20:03:15.216Z,3.70
2023-01-23T20:05:44.007Z,3.73
2023-01-23T20:08:12.314Z,2.90
2023-01-23T20:10:41.124Z,4.13
2023-01-23T20:13:12.040Z,3.77
2023-01-23T20:15:44.035Z,3.63
2023-01-23T20:18:14.034Z,3.90
2023-01-23T20:20:42.653Z,3.60
2023-01-23T20:23:11.228Z,3.83
2023-01-23T20:25:40.667Z,3.80
2023-01-23T20:28:11.412Z,3.73
2023-01-23T20:30:43.800Z,3.50
2023-01-23T20:33:13.111Z,3.80
2023-01-23T20:35:43.470Z,3.70
2023-01-23T20:38:12.184Z,3.53
2023-01-23T20:40:41.017Z,4.60
2023-01-23T20:43:09.708Z,5.17
2023-01-23T20:45:38.221Z,4.27
2023-01-23T20:48:07.719Z,4.40
2023-01-23T20:50:38.036Z,4.40
2023-01-23T20:53:25.376Z,3.80
2023-01-23T20:55:54.411Z,3.73
2023-01-23T20:58:40.217Z,3.03
2023-01-23T21:01:09.137Z,4.47
2023-01-23T21:03:38.205Z,3.47
2023-01-23T21:06:06.893Z,3.40
2023-01-23T21:08:37.185Z,4.07
2023-01-23T21:11:06.966Z,3.60
2023-01-23T21:13:36.050Z,3.50
2023-01-23T21:16:06.753Z,3.87
2023-01-23T21:18:37.511Z,4.30
2023-01-23T21:21:07.857Z,3.87
2023-01-23T21:23:37.958Z,4.23
2023-01-23T21:26:09.204Z,4.13
2023-01-23T21:28:39.217Z,3.60
2023-01-23T21:31:11.918Z,3.30
2023-01-23T21:33:44.016Z,5.33
2023-01-23T21:36:14.333Z,3.73
2023-01-23T21:38:44.490Z,4.03
2023-01-23T21:41:12.980Z,3.97
2023-01-23T21:43:41.786Z,4.50
2023-01-23T21:46:10.294Z,3.20
2023-01-23T21:48:38.980Z,4.07
2023-01-23T21:51:08.896Z,4.07
2023-01-23T21:53:38.766Z,3.60
2023-01-23T21:56:10.248Z,4.13
2023-01-23T21:58:39.135Z,3.87
2023-01-23T22:01:27.071Z,3.50
2023-01-23T22:03:55.658Z,4.10
2023-01-23T22:06:24.450Z,3.63
2023-01-23T22:08:53.405Z,3.87
2023-01-23T22:11:23.530Z,3.47
2023-01-23T22:13:52.375Z,4.17
2023-01-23T22:16:28.571Z,3.37
2023-01-23T22:19:05.081Z,4.27
2023-01-23T22:21:34.684Z,3.87
2023-01-23T22:24:03.283Z,3.43
2023-01-23T22:26:33.622Z,3.93
2023-01-23T22:29:02.584Z,3.97
2023-01-23T22:31:31.680Z,3.50
2023-01-23T22:34:00.687Z,4.13
2023-01-23T22:36:29.269Z,4.00
2023-01-23T22:38:59.961Z,3.87
2023-01-23T22:41:28.669Z,3.70
2023-01-23T22:43:59.602Z,3.80
2023-01-23T22:46:29.017Z,4.43
2023-01-23T22:48:57.618Z,3.57
2023-01-23T22:51:27.949Z,4.07
2023-01-23T22:53:57.650Z,3.37
2023-01-23T22:56:27.130Z,3.73
2023-01-23T22:58:57.266Z,3.83
2023-01-23T23:01:27.904Z,4.57
2023-01-23T23:03:58.673Z,3.90
2023-01-23T23:06:27.470Z,4.30
2023-01-23T23:08:56.280Z,4.40
2023-01-23T23:11:26.428Z,3.90
2023-01-23T23:13:56.969Z,4.40
2023-01-23T23:16:30.970Z,3.73
2023-01-23T23:19:01.982Z,4.17
2023-01-23T23:21:34.151Z,4.40
2023-01-23T23:24:03.414Z,4.47
2023-01-23T23:26:33.839Z,3.73
2023-01-23T23:29:03.074Z,3.93
2023-01-23T23:31:33.728Z,4.07
2023-01-23T23:34:02.390Z,4.03
2023-01-23T23:36:30.718Z,4.23
2023-01-23T23:38:59.272Z,3.90
2023-01-23T23:41:27.580Z,4.27
2023-01-23T23:43:56.143Z,4.27
2023-01-23T23:46:24.593Z,4.00
2023-01-23T23:48:54.524Z,4.20
2023-01-23T23:51:26.658Z,4.03
2023-01-23T23:53:57.376Z,3.40
2023-01-23T23:56:27.531Z,4.60
2023-01-23T23:58:57.233Z,4.30
